»·PEaware :: N4916T KBFL-KMHV

N4916T :: KBFL-KMHV

FLIGHT INFORMATION

Flight Status: Arrived
Operator: Privately registered:
United States
More flights under this callsign
Pilot: Anonymous 45367 (45367)
Aircraft: PIPER PA-28 CHEROKEE ARCHER
(P28A)
More flights by this aircraft type
Origin: KBFL Meadows
United States
Destination: KMHV Mojave
United States
More flights between these airports :: More routes between these airports
Route: V197 JERID
File this flight plan on PilotEdge
Remarks:
Altitude:
(Current/Filed)
5,500ft
Speed:
(Current/Filed)
110kts
Departed: 08-Nov-23 09:00 AM
Arrived: 08-Nov-23 09:41 AM
Distance/Time
Traveled:
50nm/0:40
Distance/Time
To Go:
Arrived

Flight Plot

Page will automatically refresh every two minutes.

Flight plan parsing failed; only flown route is shown


Map Options




Map Legend


Flown Route
Filed Route
Departure Airport
Arrival Airport
Navaid (VOR, NDB)
Fix

Horizontal Profiles

Position Reports

Time Latitude Longitude Heading Altitude Ground
Speed
08-Nov-23 08:37 35.429111 -119.046456 135 481ft 0kts
08-Nov-23 08:38 35.429111 -119.046455 135 481ft 0kts
08-Nov-23 08:39 35.429111 -119.046455 135 481ft 0kts
08-Nov-23 08:40 35.429111 -119.046455 135 481ft 0kts
08-Nov-23 08:41 35.429111 -119.046456 135 481ft 0kts
08-Nov-23 08:42 35.429111 -119.046455 135 481ft 0kts
08-Nov-23 08:43 35.429111 -119.046456 135 481ft 0kts
08-Nov-23 08:44 35.429111 -119.046455 135 481ft 0kts
08-Nov-23 08:45 35.429111 -119.046455 135 481ft 0kts
08-Nov-23 08:46 35.429111 -119.046455 135 481ft 0kts
08-Nov-23 08:47 35.429111 -119.046455 135 481ft 0kts
08-Nov-23 08:48 35.429111 -119.046455 135 481ft 0kts
08-Nov-23 08:49 35.429111 -119.046455 135 481ft 0kts
08-Nov-23 08:50 35.429111 -119.046455 135 481ft 0kts
08-Nov-23 08:51 35.429111 -119.046455 135 481ft 0kts
08-Nov-23 08:52 35.429111 -119.046455 135 481ft 0kts
08-Nov-23 08:54 35.429111 -119.046455 135 481ft 0kts
08-Nov-23 08:55 35.429111 -119.046455 135 481ft 0kts
08-Nov-23 08:56 35.429111 -119.046455 135 481ft 0kts
08-Nov-23 08:57 35.429111 -119.046455 135 481ft 0kts
08-Nov-23 08:58 35.428848 -119.046243 142 479ft 12kts
08-Nov-23 08:59 35.425830 -119.044668 219 471ft 0kts
08-Nov-23 09:00 35.426721 -119.047640 315 480ft 56kts
08-Nov-23 09:01 35.442115 -119.065684 326 1385ft 81kts
08-Nov-23 09:02 35.460719 -119.074246 51 2540ft 74kts
08-Nov-23 09:03 35.450039 -119.055538 142 3472ft 74kts
08-Nov-23 09:04 35.434625 -119.038526 134 4376ft 75kts
08-Nov-23 09:05 35.420588 -119.019113 142 5238ft 75kts
08-Nov-23 09:06 35.399726 -119.007329 145 5650ft 99kts
08-Nov-23 09:07 35.372215 -118.985225 140 5547ft 124kts
08-Nov-23 09:08 35.348092 -118.956188 124 5540ft 123kts
08-Nov-23 09:09 35.327811 -118.923097 132 5548ft 119kts
08-Nov-23 09:10 35.303582 -118.894526 135 5528ft 123kts
08-Nov-23 09:11 35.277096 -118.868679 134 5571ft 118kts
08-Nov-23 09:12 35.255025 -118.837801 129 5542ft 121kts
08-Nov-23 09:13 35.228229 -118.812595 146 5533ft 123kts
08-Nov-23 09:14 35.200511 -118.789485 142 5590ft 120kts
08-Nov-23 09:15 35.171331 -118.768279 145 5556ft 122kts
08-Nov-23 09:16 35.142575 -118.746803 145 5417ft 116kts
08-Nov-23 09:17 35.116343 -118.724259 138 5592ft 113kts
08-Nov-23 09:18 35.092542 -118.698081 136 5595ft 120kts
08-Nov-23 09:19 35.068186 -118.672897 127 5461ft 113kts
08-Nov-23 09:19 35.049405 -118.650669 131 5622ft 113kts
08-Nov-23 09:21 35.024689 -118.615661 109 5480ft 110kts
08-Nov-23 09:22 35.015051 -118.581757 103 5668ft 108kts
08-Nov-23 09:23 35.001960 -118.553389 119 6665ft 84kts
08-Nov-23 09:24 34.982713 -118.532817 131 6956ft 109kts
08-Nov-23 09:24 34.961487 -118.513110 126 6474ft 116kts
08-Nov-23 09:26 34.935138 -118.479419 122 5637ft 117kts
08-Nov-23 09:26 34.916783 -118.453663 116 5449ft 122kts
08-Nov-23 09:28 34.895861 -118.414371 107 5445ft 115kts
08-Nov-23 09:28 34.878819 -118.388585 115 5596ft 113kts
08-Nov-23 09:29 34.884100 -118.363676 30 5601ft 92kts
08-Nov-23 09:30 34.908098 -118.347837 36 5449ft 93kts
08-Nov-23 09:31 34.929547 -118.329885 45 5443ft 95kts
08-Nov-23 09:33 34.946871 -118.298596 57 5482ft 92kts
08-Nov-23 09:33 34.959186 -118.276127 54 5459ft 88kts
08-Nov-23 09:34 34.976873 -118.254337 47 5125ft 87kts
08-Nov-23 09:35 34.995025 -118.234442 39 4867ft 86kts
08-Nov-23 09:36 35.013350 -118.213803 40 4208ft 91kts
08-Nov-23 09:37 35.035565 -118.202313 12 3817ft 87kts
08-Nov-23 09:38 35.056342 -118.194939 53 3453ft 67kts
08-Nov-23 09:39 35.058869 -118.177463 74 3150ft 46kts
08-Nov-23 09:40 35.059137 -118.162216 83 2794ft 36kts
08-Nov-23 09:41 35.058441 -118.157746 181 2766ft 0kts
08-Nov-23 09:42 35.057373 -118.157487 268 2768ft 5kts

Navigation Log

Ident Type
Flight plan parsing failed, navigation log unavailable